sensor_id;sensor_type;location;lat;lon;timestamp;P1;durP1;ratioP1;P2;durP2;ratioP2
16760;SDS011;8498;52.516;13.790;2022-12-10T00:03:01;25.13;;;8.27;;
16760;SDS011;8498;52.516;13.790;2022-12-10T00:08:23;26.27;;;8.53;;
16760;SDS011;8498;52.516;13.790;2022-12-10T00:13:46;28.07;;;9.27;;
16760;SDS011;8498;52.516;13.790;2022-12-10T00:19:10;20.33;;;6.93;;
16760;SDS011;8498;52.516;13.790;2022-12-10T00:24:33;19.30;;;7.03;;
16760;SDS011;8498;52.516;13.790;2022-12-10T00:29:55;20.50;;;7.70;;
16760;SDS011;8498;52.516;13.790;2022-12-10T00:35:18;21.63;;;9.20;;
16760;SDS011;8498;52.516;13.790;2022-12-10T00:40:40;23.20;;;8.37;;
16760;SDS011;8498;52.516;13.790;2022-12-10T00:46:02;20.70;;;7.40;;
16760;SDS011;8498;52.516;13.790;2022-12-10T00:51:25;19.77;;;7.40;;
16760;SDS011;8498;52.516;13.790;2022-12-10T00:56:49;21.87;;;7.67;;
16760;SDS011;8498;52.516;13.790;2022-12-10T01:02:12;21.00;;;7.93;;
16760;SDS011;8498;52.516;13.790;2022-12-10T01:07:34;24.00;;;7.63;;
16760;SDS011;8498;52.516;13.790;2022-12-10T01:12:57;21.80;;;8.00;;
16760;SDS011;8498;52.516;13.790;2022-12-10T01:18:19;25.93;;;8.47;;
16760;SDS011;8498;52.516;13.790;2022-12-10T01:23:42;22.53;;;7.83;;
16760;SDS011;8498;52.516;13.790;2022-12-10T01:29:06;23.40;;;6.97;;
16760;SDS011;8498;52.516;13.790;2022-12-10T01:34:28;20.83;;;7.33;;
16760;SDS011;8498;52.516;13.790;2022-12-10T01:39:51;22.00;;;8.10;;
16760;SDS011;8498;52.516;13.790;2022-12-10T01:45:13;24.67;;;8.73;;
16760;SDS011;8498;52.516;13.790;2022-12-10T01:50:36;19.13;;;8.07;;
16760;SDS011;8498;52.516;13.790;2022-12-10T01:55:59;30.37;;;8.70;;
16760;SDS011;8498;52.516;13.790;2022-12-10T02:06:53;23.13;;;9.77;;
16760;SDS011;8498;52.516;13.790;2022-12-10T02:18:14;25.17;;;8.80;;
16760;SDS011;8498;52.516;13.790;2022-12-10T02:23:44;23.87;;;9.17;;
16760;SDS011;8498;52.516;13.790;2022-12-10T02:29:17;19.17;;;8.20;;
16760;SDS011;8498;52.516;13.790;2022-12-10T02:34:48;24.10;;;9.20;;
16760;SDS011;8498;52.516;13.790;2022-12-10T02:40:22;19.97;;;8.17;;
16760;SDS011;8498;52.516;13.790;2022-12-10T02:45:48;24.33;;;9.23;;
16760;SDS011;8498;52.516;13.790;2022-12-10T02:51:13;26.77;;;9.80;;
16760;SDS011;8498;52.516;13.790;2022-12-10T03:02:19;27.37;;;9.90;;
16760;SDS011;8498;52.516;13.790;2022-12-10T03:07:58;20.57;;;7.87;;
16760;SDS011;8498;52.516;13.790;2022-12-10T03:19:23;19.10;;;8.60;;
16760;SDS011;8498;52.516;13.790;2022-12-10T03:24:48;24.10;;;9.77;;
16760;SDS011;8498;52.516;13.790;2022-12-10T03:30:12;21.37;;;8.63;;
16760;SDS011;8498;52.516;13.790;2022-12-10T03:35:37;18.07;;;7.70;;
16760;SDS011;8498;52.516;13.790;2022-12-10T03:41:01;24.60;;;8.57;;
16760;SDS011;8498;52.516;13.790;2022-12-10T03:46:24;20.50;;;8.20;;
16760;SDS011;8498;52.516;13.790;2022-12-10T03:51:47;21.90;;;7.27;;
16760;SDS011;8498;52.516;13.790;2022-12-10T03:57:10;22.23;;;8.20;;
16760;SDS011;8498;52.516;13.790;2022-12-10T04:02:32;21.83;;;7.40;;
16760;SDS011;8498;52.516;13.790;2022-12-10T04:07:54;18.53;;;7.10;;
16760;SDS011;8498;52.516;13.790;2022-12-10T04:13:17;23.00;;;8.20;;
16760;SDS011;8498;52.516;13.790;2022-12-10T04:19:09;20.90;;;8.43;;
16760;SDS011;8498;52.516;13.790;2022-12-10T04:24:33;19.93;;;8.23;;
16760;SDS011;8498;52.516;13.790;2022-12-10T04:30:16;22.63;;;8.13;;
16760;SDS011;8498;52.516;13.790;2022-12-10T04:35:38;23.63;;;8.07;;
16760;SDS011;8498;52.516;13.790;2022-12-10T04:41:01;18.97;;;7.67;;
16760;SDS011;8498;52.516;13.790;2022-12-10T04:46:23;18.90;;;7.90;;
16760;SDS011;8498;52.516;13.790;2022-12-10T04:51:45;21.27;;;8.30;;
16760;SDS011;8498;52.516;13.790;2022-12-10T04:57:09;21.03;;;8.90;;
16760;SDS011;8498;52.516;13.790;2022-12-10T05:02:32;19.17;;;7.40;;
16760;SDS011;8498;52.516;13.790;2022-12-10T05:07:55;21.13;;;7.80;;
16760;SDS011;8498;52.516;13.790;2022-12-10T05:13:18;24.80;;;7.97;;
16760;SDS011;8498;52.516;13.790;2022-12-10T05:18:40;21.63;;;8.67;;
16760;SDS011;8498;52.516;13.790;2022-12-10T05:24:02;20.83;;;8.30;;
16760;SDS011;8498;52.516;13.790;2022-12-10T05:29:25;19.93;;;8.60;;
16760;SDS011;8498;52.516;13.790;2022-12-10T05:34:47;21.47;;;8.93;;
16760;SDS011;8498;52.516;13.790;2022-12-10T05:40:10;19.33;;;8.53;;
16760;SDS011;8498;52.516;13.790;2022-12-10T05:45:33;22.47;;;8.50;;
16760;SDS011;8498;52.516;13.790;2022-12-10T05:50:55;26.47;;;8.43;;
16760;SDS011;8498;52.516;13.790;2022-12-10T05:56:18;20.30;;;8.50;;
16760;SDS011;8498;52.516;13.790;2022-12-10T06:01:43;22.17;;;8.50;;
16760;SDS011;8498;52.516;13.790;2022-12-10T06:07:06;21.53;;;8.57;;
16760;SDS011;8498;52.516;13.790;2022-12-10T06:12:32;21.93;;;8.30;;
16760;SDS011;8498;52.516;13.790;2022-12-10T06:17:55;19.73;;;8.67;;
16760;SDS011;8498;52.516;13.790;2022-12-10T06:23:18;21.27;;;9.23;;
16760;SDS011;8498;52.516;13.790;2022-12-10T06:28:41;23.00;;;9.70;;
16760;SDS011;8498;52.516;13.790;2022-12-10T06:34:03;30.20;;;11.47;;
16760;SDS011;8498;52.516;13.790;2022-12-10T06:39:25;23.07;;;9.10;;
16760;SDS011;8498;52.516;13.790;2022-12-10T06:44:48;22.33;;;8.23;;
16760;SDS011;8498;52.516;13.790;2022-12-10T06:50:10;26.67;;;8.90;;
16760;SDS011;8498;52.516;13.790;2022-12-10T06:55:35;21.93;;;9.00;;
16760;SDS011;8498;52.516;13.790;2022-12-10T07:01:03;22.17;;;8.53;;
16760;SDS011;8498;52.516;13.790;2022-12-10T07:06:30;26.43;;;9.23;;
16760;SDS011;8498;52.516;13.790;2022-12-10T07:11:53;25.10;;;9.10;;
16760;SDS011;8498;52.516;13.790;2022-12-10T07:17:16;22.37;;;9.90;;
16760;SDS011;8498;52.516;13.790;2022-12-10T07:22:38;20.27;;;8.50;;
16760;SDS011;8498;52.516;13.790;2022-12-10T07:28:01;26.73;;;10.07;;
16760;SDS011;8498;52.516;13.790;2022-12-10T07:33:23;30.13;;;10.93;;
16760;SDS011;8498;52.516;13.790;2022-12-10T07:38:46;21.77;;;9.00;;
16760;SDS011;8498;52.516;13.790;2022-12-10T07:44:09;21.87;;;9.90;;
16760;SDS011;8498;52.516;13.790;2022-12-10T07:49:34;22.63;;;9.43;;
16760;SDS011;8498;52.516;13.790;2022-12-10T07:54:56;25.93;;;9.00;;
16760;SDS011;8498;52.516;13.790;2022-12-10T08:00:18;28.73;;;11.17;;
16760;SDS011;8498;52.516;13.790;2022-12-10T08:05:41;23.43;;;10.23;;
16760;SDS011;8498;52.516;13.790;2022-12-10T08:11:03;25.83;;;9.60;;
16760;SDS011;8498;52.516;13.790;2022-12-10T08:16:27;26.30;;;9.90;;
16760;SDS011;8498;52.516;13.790;2022-12-10T08:21:51;25.77;;;10.77;;
16760;SDS011;8498;52.516;13.790;2022-12-10T08:27:14;23.20;;;10.07;;
16760;SDS011;8498;52.516;13.790;2022-12-10T08:32:37;23.50;;;9.50;;
16760;SDS011;8498;52.516;13.790;2022-12-10T08:37:59;22.10;;;9.13;;
16760;SDS011;8498;52.516;13.790;2022-12-10T08:43:21;22.37;;;8.90;;
16760;SDS011;8498;52.516;13.790;2022-12-10T08:48:44;24.73;;;8.50;;
16760;SDS011;8498;52.516;13.790;2022-12-10T08:54:06;16.30;;;7.70;;
16760;SDS011;8498;52.516;13.790;2022-12-10T08:59:29;17.43;;;8.63;;
16760;SDS011;8498;52.516;13.790;2022-12-10T09:04:51;18.53;;;8.73;;
16760;SDS011;8498;52.516;13.790;2022-12-10T09:10:16;22.40;;;8.67;;
16760;SDS011;8498;52.516;13.790;2022-12-10T09:15:38;19.60;;;8.03;;
16760;SDS011;8498;52.516;13.790;2022-12-10T09:21:04;19.13;;;8.37;;
16760;SDS011;8498;52.516;13.790;2022-12-10T09:26:32;18.67;;;8.97;;
16760;SDS011;8498;52.516;13.790;2022-12-10T09:31:55;22.60;;;9.07;;
16760;SDS011;8498;52.516;13.790;2022-12-10T09:37:18;16.07;;;8.07;;
16760;SDS011;8498;52.516;13.790;2022-12-10T09:42:43;22.03;;;7.70;;
16760;SDS011;8498;52.516;13.790;2022-12-10T09:48:20;22.57;;;9.00;;
16760;SDS011;8498;52.516;13.790;2022-12-10T09:59:49;16.63;;;7.43;;
16760;SDS011;8498;52.516;13.790;2022-12-10T10:10:51;17.37;;;8.53;;
16760;SDS011;8498;52.516;13.790;2022-12-10T10:16:22;20.57;;;8.57;;
16760;SDS011;8498;52.516;13.790;2022-12-10T10:21:48;23.00;;;9.10;;
16760;SDS011;8498;52.516;13.790;2022-12-10T10:32:54;18.40;;;8.43;;
16760;SDS011;8498;52.516;13.790;2022-12-10T10:38:22;20.17;;;8.20;;
16760;SDS011;8498;52.516;13.790;2022-12-10T10:43:46;20.17;;;9.10;;
16760;SDS011;8498;52.516;13.790;2022-12-10T10:49:27;16.73;;;7.80;;
16760;SDS011;8498;52.516;13.790;2022-12-10T10:54:51;19.63;;;8.63;;
16760;SDS011;8498;52.516;13.790;2022-12-10T11:00:18;19.67;;;8.40;;
16760;SDS011;8498;52.516;13.790;2022-12-10T11:05:46;21.40;;;9.20;;
16760;SDS011;8498;52.516;13.790;2022-12-10T11:11:58;20.10;;;8.70;;
16760;SDS011;8498;52.516;13.790;2022-12-10T11:17:11;19.03;;;8.20;;
16760;SDS011;8498;52.516;13.790;2022-12-10T11:22:48;19.67;;;8.63;;
16760;SDS011;8498;52.516;13.790;2022-12-10T11:33:56;18.70;;;8.73;;
16760;SDS011;8498;52.516;13.790;2022-12-10T11:50:52;19.50;;;8.83;;
16760;SDS011;8498;52.516;13.790;2022-12-10T11:56:24;21.67;;;8.97;;
16760;SDS011;8498;52.516;13.790;2022-12-10T12:01:59;22.10;;;9.37;;
16760;SDS011;8498;52.516;13.790;2022-12-10T12:24:33;21.43;;;9.00;;
16760;SDS011;8498;52.516;13.790;2022-12-10T12:30:03;21.33;;;9.27;;
16760;SDS011;8498;52.516;13.790;2022-12-10T12:41:10;26.20;;;10.43;;
16760;SDS011;8498;52.516;13.790;2022-12-10T12:46:42;27.80;;;9.57;;
16760;SDS011;8498;52.516;13.790;2022-12-10T12:58:16;22.10;;;9.63;;
16760;SDS011;8498;52.516;13.790;2022-12-10T13:03:46;23.20;;;10.53;;
16760;SDS011;8498;52.516;13.790;2022-12-10T13:14:35;23.33;;;9.33;;
16760;SDS011;8498;52.516;13.790;2022-12-10T13:26:01;29.10;;;10.43;;
16760;SDS011;8498;52.516;13.790;2022-12-10T13:37:03;21.40;;;9.53;;
16760;SDS011;8498;52.516;13.790;2022-12-10T13:42:30;24.60;;;9.37;;
16760;SDS011;8498;52.516;13.790;2022-12-10T13:59:23;30.13;;;10.23;;
16760;SDS011;8498;52.516;13.790;2022-12-10T14:05:18;29.57;;;10.73;;
16760;SDS011;8498;52.516;13.790;2022-12-10T14:10:48;25.50;;;10.13;;
16760;SDS011;8498;52.516;13.790;2022-12-10T14:16:13;25.07;;;10.10;;
16760;SDS011;8498;52.516;13.790;2022-12-10T14:21:38;28.80;;;10.67;;
16760;SDS011;8498;52.516;13.790;2022-12-10T14:27:09;30.67;;;11.00;;
16760;SDS011;8498;52.516;13.790;2022-12-10T14:32:36;37.03;;;10.60;;
16760;SDS011;8498;52.516;13.790;2022-12-10T14:38:01;29.27;;;11.17;;
16760;SDS011;8498;52.516;13.790;2022-12-10T14:43:25;38.63;;;11.17;;
16760;SDS011;8498;52.516;13.790;2022-12-10T14:48:54;31.37;;;10.00;;
16760;SDS011;8498;52.516;13.790;2022-12-10T14:54:24;33.03;;;9.67;;
16760;SDS011;8498;52.516;13.790;2022-12-10T15:00:15;28.70;;;11.47;;
16760;SDS011;8498;52.516;13.790;2022-12-10T15:05:36;43.20;;;12.23;;
16760;SDS011;8498;52.516;13.790;2022-12-10T15:11:00;36.30;;;10.57;;
16760;SDS011;8498;52.516;13.790;2022-12-10T15:16:28;40.57;;;11.50;;
16760;SDS011;8498;52.516;13.790;2022-12-10T15:21:52;41.63;;;11.60;;
16760;SDS011;8498;52.516;13.790;2022-12-10T15:27:22;42.63;;;11.60;;
16760;SDS011;8498;52.516;13.790;2022-12-10T15:32:47;34.63;;;11.13;;
16760;SDS011;8498;52.516;13.790;2022-12-10T15:38:12;35.77;;;10.97;;
16760;SDS011;8498;52.516;13.790;2022-12-10T15:43:34;38.40;;;11.10;;
16760;SDS011;8498;52.516;13.790;2022-12-10T15:48:57;35.83;;;11.73;;
16760;SDS011;8498;52.516;13.790;2022-12-10T15:54:26;32.30;;;10.73;;
16760;SDS011;8498;52.516;13.790;2022-12-10T15:59:55;31.97;;;10.13;;
16760;SDS011;8498;52.516;13.790;2022-12-10T16:05:23;43.47;;;11.27;;
16760;SDS011;8498;52.516;13.790;2022-12-10T16:10:48;34.77;;;11.57;;
16760;SDS011;8498;52.516;13.790;2022-12-10T16:16:12;39.17;;;10.97;;
16760;SDS011;8498;52.516;13.790;2022-12-10T16:21:35;32.70;;;10.73;;
16760;SDS011;8498;52.516;13.790;2022-12-10T16:26:57;39.33;;;12.47;;
16760;SDS011;8498;52.516;13.790;2022-12-10T16:32:20;36.67;;;11.03;;
16760;SDS011;8498;52.516;13.790;2022-12-10T16:37:45;35.67;;;11.40;;
16760;SDS011;8498;52.516;13.790;2022-12-10T16:43:14;36.07;;;10.70;;
16760;SDS011;8498;52.516;13.790;2022-12-10T16:48:41;40.07;;;13.07;;
16760;SDS011;8498;52.516;13.790;2022-12-10T16:54:03;34.40;;;11.60;;
16760;SDS011;8498;52.516;13.790;2022-12-10T16:59:26;38.87;;;11.80;;
16760;SDS011;8498;52.516;13.790;2022-12-10T17:04:49;36.97;;;11.73;;
16760;SDS011;8498;52.516;13.790;2022-12-10T17:10:11;34.17;;;12.10;;
16760;SDS011;8498;52.516;13.790;2022-12-10T17:15:35;43.03;;;13.87;;
16760;SDS011;8498;52.516;13.790;2022-12-10T17:20:58;39.77;;;12.50;;
16760;SDS011;8498;52.516;13.790;2022-12-10T17:26:28;35.50;;;11.93;;
16760;SDS011;8498;52.516;13.790;2022-12-10T17:31:53;44.23;;;12.17;;
16760;SDS011;8498;52.516;13.790;2022-12-10T17:37:16;34.07;;;12.40;;
16760;SDS011;8498;52.516;13.790;2022-12-10T17:42:40;33.90;;;12.67;;
16760;SDS011;8498;52.516;13.790;2022-12-10T17:48:03;36.60;;;12.00;;
16760;SDS011;8498;52.516;13.790;2022-12-10T17:53:27;34.80;;;11.67;;
16760;SDS011;8498;52.516;13.790;2022-12-10T17:58:51;29.17;;;10.83;;
16760;SDS011;8498;52.516;13.790;2022-12-10T18:04:14;35.23;;;11.97;;
16760;SDS011;8498;52.516;13.790;2022-12-10T18:09:36;42.77;;;14.60;;
16760;SDS011;8498;52.516;13.790;2022-12-10T18:14:58;35.70;;;13.50;;
16760;SDS011;8498;52.516;13.790;2022-12-10T18:20:23;31.80;;;12.97;;
16760;SDS011;8498;52.516;13.790;2022-12-10T18:25:51;40.60;;;13.43;;
16760;SDS011;8498;52.516;13.790;2022-12-10T18:31:15;37.93;;;12.73;;
16760;SDS011;8498;52.516;13.790;2022-12-10T18:36:44;44.53;;;14.20;;
16760;SDS011;8498;52.516;13.790;2022-12-10T18:42:07;42.37;;;13.37;;
16760;SDS011;8498;52.516;13.790;2022-12-10T18:47:30;38.17;;;13.80;;
16760;SDS011;8498;52.516;13.790;2022-12-10T18:52:52;33.13;;;12.83;;
16760;SDS011;8498;52.516;13.790;2022-12-10T18:58:15;34.63;;;12.10;;
16760;SDS011;8498;52.516;13.790;2022-12-10T19:03:37;34.73;;;14.57;;
16760;SDS011;8498;52.516;13.790;2022-12-10T19:09:11;38.97;;;15.43;;
16760;SDS011;8498;52.516;13.790;2022-12-10T19:14:40;35.53;;;13.83;;
16760;SDS011;8498;52.516;13.790;2022-12-10T19:20:03;37.50;;;14.83;;
16760;SDS011;8498;52.516;13.790;2022-12-10T19:25:25;43.27;;;12.97;;
16760;SDS011;8498;52.516;13.790;2022-12-10T19:30:48;49.00;;;16.10;;
16760;SDS011;8498;52.516;13.790;2022-12-10T19:36:18;39.03;;;15.27;;
16760;SDS011;8498;52.516;13.790;2022-12-10T19:41:52;31.00;;;12.10;;
16760;SDS011;8498;52.516;13.790;2022-12-10T19:47:16;35.27;;;13.87;;
16760;SDS011;8498;52.516;13.790;2022-12-10T19:52:39;33.77;;;13.53;;
16760;SDS011;8498;52.516;13.790;2022-12-10T19:58:01;28.13;;;10.77;;
16760;SDS011;8498;52.516;13.790;2022-12-10T20:03:24;30.20;;;11.07;;
16760;SDS011;8498;52.516;13.790;2022-12-10T20:08:46;23.00;;;9.27;;
16760;SDS011;8498;52.516;13.790;2022-12-10T20:14:10;31.30;;;11.03;;
16760;SDS011;8498;52.516;13.790;2022-12-10T20:19:32;28.03;;;12.00;;
16760;SDS011;8498;52.516;13.790;2022-12-10T20:24:54;21.03;;;10.13;;
16760;SDS011;8498;52.516;13.790;2022-12-10T20:30:21;26.23;;;9.97;;
16760;SDS011;8498;52.516;13.790;2022-12-10T20:35:49;24.00;;;10.37;;
16760;SDS011;8498;52.516;13.790;2022-12-10T20:41:12;21.20;;;8.40;;
16760;SDS011;8498;52.516;13.790;2022-12-10T20:46:35;17.80;;;8.80;;
16760;SDS011;8498;52.516;13.790;2022-12-10T20:51:59;22.57;;;9.83;;
16760;SDS011;8498;52.516;13.790;2022-12-10T20:57:22;20.43;;;8.83;;
16760;SDS011;8498;52.516;13.790;2022-12-10T21:02:44;20.93;;;8.43;;
16760;SDS011;8498;52.516;13.790;2022-12-10T21:08:10;20.60;;;9.03;;
16760;SDS011;8498;52.516;13.790;2022-12-10T21:13:33;20.90;;;9.53;;
16760;SDS011;8498;52.516;13.790;2022-12-10T21:18:55;22.63;;;9.30;;
16760;SDS011;8498;52.516;13.790;2022-12-10T21:24:18;26.10;;;8.47;;
16760;SDS011;8498;52.516;13.790;2022-12-10T21:29:40;25.57;;;9.43;;
16760;SDS011;8498;52.516;13.790;2022-12-10T21:35:02;26.40;;;9.50;;
16760;SDS011;8498;52.516;13.790;2022-12-10T21:40:25;26.87;;;10.13;;
16760;SDS011;8498;52.516;13.790;2022-12-10T21:45:48;22.13;;;8.93;;
16760;SDS011;8498;52.516;13.790;2022-12-10T21:51:15;17.00;;;7.07;;
16760;SDS011;8498;52.516;13.790;2022-12-10T21:56:39;12.30;;;6.30;;
16760;SDS011;8498;52.516;13.790;2022-12-10T22:02:01;13.67;;;6.57;;
16760;SDS011;8498;52.516;13.790;2022-12-10T22:07:24;13.60;;;6.17;;
16760;SDS011;8498;52.516;13.790;2022-12-10T22:12:48;16.43;;;6.47;;
16760;SDS011;8498;52.516;13.790;2022-12-10T22:18:11;20.17;;;7.07;;
16760;SDS011;8498;52.516;13.790;2022-12-10T22:23:33;14.23;;;6.30;;
16760;SDS011;8498;52.516;13.790;2022-12-10T22:28:56;11.63;;;6.67;;
16760;SDS011;8498;52.516;13.790;2022-12-10T22:34:18;14.53;;;6.33;;
16760;SDS011;8498;52.516;13.790;2022-12-10T22:39:42;15.50;;;6.17;;
16760;SDS011;8498;52.516;13.790;2022-12-10T22:45:07;19.17;;;7.13;;
16760;SDS011;8498;52.516;13.790;2022-12-10T22:50:31;15.40;;;7.20;;
16760;SDS011;8498;52.516;13.790;2022-12-10T22:56:00;12.37;;;6.83;;
16760;SDS011;8498;52.516;13.790;2022-12-10T23:01:25;16.90;;;6.97;;
16760;SDS011;8498;52.516;13.790;2022-12-10T23:06:48;15.73;;;7.13;;
16760;SDS011;8498;52.516;13.790;2022-12-10T23:12:11;14.60;;;7.60;;
16760;SDS011;8498;52.516;13.790;2022-12-10T23:17:52;16.63;;;7.23;;
16760;SDS011;8498;52.516;13.790;2022-12-10T23:23:15;20.97;;;7.97;;
16760;SDS011;8498;52.516;13.790;2022-12-10T23:28:38;17.93;;;7.17;;
16760;SDS011;8498;52.516;13.790;2022-12-10T23:34:01;14.67;;;6.87;;
16760;SDS011;8498;52.516;13.790;2022-12-10T23:39:24;18.03;;;6.83;;
16760;SDS011;8498;52.516;13.790;2022-12-10T23:44:46;15.83;;;7.33;;
16760;SDS011;8498;52.516;13.790;2022-12-10T23:50:09;19.70;;;7.27;;
16760;SDS011;8498;52.516;13.790;2022-12-10T23:55:31;14.27;;;6.20;;
